sensor_id;sensor_type;location;lat;lon;timestamp;pressure;altitude;pressure_sealevel;temperature;humidity
21826;BME280;11075;47.944;11.776;2023-11-18T00:01:04;95461.84;;;-6.03;85.35
21826;BME280;11075;47.944;11.776;2023-11-18T00:03:30;95460.94;;;-5.91;83.85
21826;BME280;11075;47.944;11.776;2023-11-18T00:05:57;95464.78;;;-6.18;82.63
21826;BME280;11075;47.944;11.776;2023-11-18T00:08:24;95468.22;;;-6.49;87.13
21826;BME280;11075;47.944;11.776;2023-11-18T00:10:51;95469.53;;;-6.33;84.27
21826;BME280;11075;47.944;11.776;2023-11-18T00:13:18;95470.84;;;-6.49;84.58
21826;BME280;11075;47.944;11.776;2023-11-18T00:15:45;95469.22;;;-6.18;83.95
21826;BME280;11075;47.944;11.776;2023-11-18T00:18:13;95471.44;;;-5.91;80.22
21826;BME280;11075;47.944;11.776;2023-11-18T00:20:40;95470.63;;;-5.41;77.44
21826;BME280;11075;47.944;11.776;2023-11-18T00:23:07;95466.94;;;-6.08;84.81
21826;BME280;11075;47.944;11.776;2023-11-18T00:25:34;95466.47;;;-5.74;80.94
21826;BME280;11075;47.944;11.776;2023-11-18T00:28:03;95468.47;;;-6.26;84.42
21826;BME280;11075;47.944;11.776;2023-11-18T00:30:30;95475.03;;;-5.85;85.36
21826;BME280;11075;47.944;11.776;2023-11-18T00:32:57;95473.28;;;-6.54;86.85
21826;BME280;11075;47.944;11.776;2023-11-18T00:35:24;95483.38;;;-6.19;85.22
21826;BME280;11075;47.944;11.776;2023-11-18T00:37:51;95484.19;;;-5.69;82.12
21826;BME280;11075;47.944;11.776;2023-11-18T00:40:18;95487.75;;;-5.57;80.38
21826;BME280;11075;47.944;11.776;2023-11-18T00:42:45;95489.50;;;-5.76;82.07
21826;BME280;11075;47.944;11.776;2023-11-18T00:45:12;95493.91;;;-5.70;82.16
21826;BME280;11075;47.944;11.776;2023-11-18T00:47:39;95498.97;;;-5.25;78.15
21826;BME280;11075;47.944;11.776;2023-11-18T00:50:08;95502.41;;;-5.99;82.65
21826;BME280;11075;47.944;11.776;2023-11-18T00:52:36;95503.06;;;-5.29;77.97
21826;BME280;11075;47.944;11.776;2023-11-18T00:55:06;95509.72;;;-5.51;80.76
21826;BME280;11075;47.944;11.776;2023-11-18T00:57:34;95499.50;;;-5.60;80.12
21826;BME280;11075;47.944;11.776;2023-11-18T01:00:01;95505.38;;;-6.20;83.66
21826;BME280;11075;47.944;11.776;2023-11-18T01:02:29;95508.63;;;-6.25;85.49
21826;BME280;11075;47.944;11.776;2023-11-18T01:04:56;95514.69;;;-5.93;83.13
21826;BME280;11075;47.944;11.776;2023-11-18T01:07:23;95510.44;;;-6.26;85.47
21826;BME280;11075;47.944;11.776;2023-11-18T01:09:49;95502.03;;;-6.34;86.67
21826;BME280;11075;47.944;11.776;2023-11-18T01:12:16;95501.75;;;-6.58;88.88
21826;BME280;11075;47.944;11.776;2023-11-18T01:14:43;95509.41;;;-6.56;89.19
21826;BME280;11075;47.944;11.776;2023-11-18T01:17:10;95500.06;;;-5.82;83.90
21826;BME280;11075;47.944;11.776;2023-11-18T01:19:37;95503.84;;;-6.03;84.70
21826;BME280;11075;47.944;11.776;2023-11-18T01:22:04;95502.34;;;-5.93;81.76
21826;BME280;11075;47.944;11.776;2023-11-18T01:24:33;95498.13;;;-5.69;81.26
21826;BME280;11075;47.944;11.776;2023-11-18T01:27:00;95503.53;;;-5.88;84.49
21826;BME280;11075;47.944;11.776;2023-11-18T01:29:27;95507.06;;;-6.01;85.23
21826;BME280;11075;47.944;11.776;2023-11-18T01:31:54;95502.03;;;-6.79;90.00
21826;BME280;11075;47.944;11.776;2023-11-18T01:34:22;95498.09;;;-6.18;87.89
21826;BME280;11075;47.944;11.776;2023-11-18T01:36:49;95503.72;;;-6.15;85.15
21826;BME280;11075;47.944;11.776;2023-11-18T01:39:17;95506.50;;;-6.10;86.52
21826;BME280;11075;47.944;11.776;2023-11-18T01:41:45;95509.19;;;-6.16;89.22
21826;BME280;11075;47.944;11.776;2023-11-18T01:44:12;95516.34;;;-5.99;86.43
21826;BME280;11075;47.944;11.776;2023-11-18T01:46:42;95513.22;;;-5.57;82.26
21826;BME280;11075;47.944;11.776;2023-11-18T01:49:13;95511.81;;;-6.55;88.26
21826;BME280;11075;47.944;11.776;2023-11-18T01:51:42;95522.34;;;-5.92;82.09
21826;BME280;11075;47.944;11.776;2023-11-18T01:54:12;95530.34;;;-6.11;84.89
21826;BME280;11075;47.944;11.776;2023-11-18T01:56:46;95529.78;;;-5.57;80.67
21826;BME280;11075;47.944;11.776;2023-11-18T01:59:14;95532.59;;;-6.15;84.78
21826;BME280;11075;47.944;11.776;2023-11-18T02:01:49;95531.66;;;-5.96;85.12
21826;BME280;11075;47.944;11.776;2023-11-18T02:04:18;95529.63;;;-5.94;83.40
21826;BME280;11075;47.944;11.776;2023-11-18T02:06:50;95524.75;;;-5.90;84.75
21826;BME280;11075;47.944;11.776;2023-11-18T02:09:20;95530.88;;;-6.34;85.18
21826;BME280;11075;47.944;11.776;2023-11-18T02:14:48;95535.53;;;-5.73;83.24
21826;BME280;11075;47.944;11.776;2023-11-18T02:17:19;95528.44;;;-5.98;81.65
21826;BME280;11075;47.944;11.776;2023-11-18T02:19:47;95533.78;;;-5.54;80.15
21826;BME280;11075;47.944;11.776;2023-11-18T02:22:15;95534.88;;;-5.69;83.58
21826;BME280;11075;47.944;11.776;2023-11-18T02:24:42;95538.13;;;-5.67;83.99
21826;BME280;11075;47.944;11.776;2023-11-18T02:27:09;95540.72;;;-5.60;81.71
21826;BME280;11075;47.944;11.776;2023-11-18T02:29:40;95539.53;;;-5.39;81.33
21826;BME280;11075;47.944;11.776;2023-11-18T02:34:51;95541.16;;;-5.70;82.14
21826;BME280;11075;47.944;11.776;2023-11-18T02:37:20;95538.19;;;-5.48;82.17
21826;BME280;11075;47.944;11.776;2023-11-18T02:39:52;95531.34;;;-5.49;81.17
21826;BME280;11075;47.944;11.776;2023-11-18T02:42:21;95536.47;;;-6.24;84.17
21826;BME280;11075;47.944;11.776;2023-11-18T02:44:50;95533.38;;;-6.14;85.45
21826;BME280;11075;47.944;11.776;2023-11-18T02:47:26;95527.97;;;-6.19;87.10
21826;BME280;11075;47.944;11.776;2023-11-18T02:49:54;95544.44;;;-6.44;89.82
21826;BME280;11075;47.944;11.776;2023-11-18T02:52:22;95532.16;;;-5.80;84.69
21826;BME280;11075;47.944;11.776;2023-11-18T02:54:49;95536.75;;;-5.76;83.50
21826;BME280;11075;47.944;11.776;2023-11-18T02:57:16;95533.63;;;-5.60;81.65
21826;BME280;11075;47.944;11.776;2023-11-18T02:59:44;95530.25;;;-5.67;81.88
21826;BME280;11075;47.944;11.776;2023-11-18T03:02:13;95529.41;;;-5.61;82.03
21826;BME280;11075;47.944;11.776;2023-11-18T03:04:41;95533.78;;;-6.11;86.05
21826;BME280;11075;47.944;11.776;2023-11-18T03:07:11;95538.38;;;-5.75;84.03
21826;BME280;11075;47.944;11.776;2023-11-18T03:09:38;95525.66;;;-5.46;80.37
21826;BME280;11075;47.944;11.776;2023-11-18T03:12:06;95530.00;;;-5.90;82.04
21826;BME280;11075;47.944;11.776;2023-11-18T03:14:34;95536.44;;;-5.54;82.36
21826;BME280;11075;47.944;11.776;2023-11-18T03:17:01;95541.09;;;-5.88;83.78
21826;BME280;11075;47.944;11.776;2023-11-18T03:19:28;95539.63;;;-6.09;83.64
21826;BME280;11075;47.944;11.776;2023-11-18T03:21:56;95532.88;;;-5.42;79.82
21826;BME280;11075;47.944;11.776;2023-11-18T03:24:22;95544.25;;;-5.48;83.19
21826;BME280;11075;47.944;11.776;2023-11-18T03:26:49;95545.25;;;-5.24;78.08
21826;BME280;11075;47.944;11.776;2023-11-18T03:29:17;95543.59;;;-5.18;79.96
21826;BME280;11075;47.944;11.776;2023-11-18T03:31:44;95555.41;;;-5.84;84.15
21826;BME280;11075;47.944;11.776;2023-11-18T03:34:18;95558.34;;;-5.67;80.92
21826;BME280;11075;47.944;11.776;2023-11-18T03:36:47;95566.72;;;-5.83;82.76
21826;BME280;11075;47.944;11.776;2023-11-18T03:39:14;95564.78;;;-5.63;82.97
21826;BME280;11075;47.944;11.776;2023-11-18T03:41:41;95566.00;;;-5.41;81.80
21826;BME280;11075;47.944;11.776;2023-11-18T03:44:13;95569.59;;;-5.35;82.10
21826;BME280;11075;47.944;11.776;2023-11-18T03:46:40;95566.66;;;-5.77;84.39
21826;BME280;11075;47.944;11.776;2023-11-18T03:49:09;95574.19;;;-6.18;85.45
21826;BME280;11075;47.944;11.776;2023-11-18T03:51:36;95571.09;;;-5.21;79.92
21826;BME280;11075;47.944;11.776;2023-11-18T03:54:03;95572.72;;;-5.20;80.08
21826;BME280;11075;47.944;11.776;2023-11-18T03:56:30;95575.44;;;-5.33;79.22
21826;BME280;11075;47.944;11.776;2023-11-18T03:58:57;95581.19;;;-5.43;81.09
21826;BME280;11075;47.944;11.776;2023-11-18T04:01:25;95578.56;;;-5.18;79.89
21826;BME280;11075;47.944;11.776;2023-11-18T04:03:55;95582.97;;;-4.94;79.35
21826;BME280;11075;47.944;11.776;2023-11-18T04:06:22;95586.22;;;-6.04;85.94
21826;BME280;11075;47.944;11.776;2023-11-18T04:08:51;95583.19;;;-5.70;82.50
21826;BME280;11075;47.944;11.776;2023-11-18T04:11:18;95582.16;;;-5.37;81.41
21826;BME280;11075;47.944;11.776;2023-11-18T04:13:44;95587.16;;;-5.92;86.46
21826;BME280;11075;47.944;11.776;2023-11-18T04:16:15;95584.47;;;-5.47;82.98
21826;BME280;11075;47.944;11.776;2023-11-18T04:18:43;95588.22;;;-6.00;86.67
21826;BME280;11075;47.944;11.776;2023-11-18T04:21:11;95579.47;;;-6.25;88.36
21826;BME280;11075;47.944;11.776;2023-11-18T04:23:41;95581.69;;;-5.91;83.44
21826;BME280;11075;47.944;11.776;2023-11-18T04:26:09;95576.25;;;-4.89;79.27
21826;BME280;11075;47.944;11.776;2023-11-18T04:28:36;95575.53;;;-6.09;86.00
21826;BME280;11075;47.944;11.776;2023-11-18T04:31:04;95570.44;;;-5.66;83.33
21826;BME280;11075;47.944;11.776;2023-11-18T04:33:32;95575.38;;;-5.83;81.08
21826;BME280;11075;47.944;11.776;2023-11-18T04:36:00;95577.13;;;-5.70;82.88
21826;BME280;11075;47.944;11.776;2023-11-18T04:38:27;95573.47;;;-5.63;82.05
21826;BME280;11075;47.944;11.776;2023-11-18T04:40:54;95571.47;;;-5.42;81.26
21826;BME280;11075;47.944;11.776;2023-11-18T04:43:22;95569.34;;;-5.27;79.89
21826;BME280;11075;47.944;11.776;2023-11-18T04:46:05;95574.81;;;-4.85;77.10
21826;BME280;11075;47.944;11.776;2023-11-18T04:48:32;95570.19;;;-5.33;78.52
21826;BME280;11075;47.944;11.776;2023-11-18T04:51:03;95579.44;;;-5.87;81.64
21826;BME280;11075;47.944;11.776;2023-11-18T04:53:29;95569.06;;;-5.19;78.74
21826;BME280;11075;47.944;11.776;2023-11-18T04:55:58;95574.38;;;-5.50;80.37
21826;BME280;11075;47.944;11.776;2023-11-18T04:58:24;95570.63;;;-5.68;82.00
21826;BME280;11075;47.944;11.776;2023-11-18T05:00:51;95577.66;;;-5.30;79.14
21826;BME280;11075;47.944;11.776;2023-11-18T05:03:18;95571.38;;;-5.54;80.06
21826;BME280;11075;47.944;11.776;2023-11-18T05:05:45;95580.69;;;-5.90;81.56
21826;BME280;11075;47.944;11.776;2023-11-18T05:08:19;95572.59;;;-5.88;84.81
21826;BME280;11075;47.944;11.776;2023-11-18T05:10:50;95575.50;;;-5.65;80.72
21826;BME280;11075;47.944;11.776;2023-11-18T05:13:17;95583.16;;;-6.01;84.22
21826;BME280;11075;47.944;11.776;2023-11-18T05:15:46;95581.66;;;-5.28;80.62
21826;BME280;11075;47.944;11.776;2023-11-18T05:18:14;95582.06;;;-5.87;83.49
21826;BME280;11075;47.944;11.776;2023-11-18T05:20:43;95580.03;;;-5.85;84.13
21826;BME280;11075;47.944;11.776;2023-11-18T05:23:10;95583.13;;;-5.32;80.23
21826;BME280;11075;47.944;11.776;2023-11-18T05:25:42;95592.00;;;-6.34;85.14
21826;BME280;11075;47.944;11.776;2023-11-18T05:28:10;95589.69;;;-4.98;77.70
21826;BME280;11075;47.944;11.776;2023-11-18T05:30:41;95580.91;;;-5.35;78.63
21826;BME280;11075;47.944;11.776;2023-11-18T05:33:08;95582.00;;;-5.74;80.63
21826;BME280;11075;47.944;11.776;2023-11-18T05:35:37;95582.00;;;-5.74;81.61
21826;BME280;11075;47.944;11.776;2023-11-18T05:38:03;95575.28;;;-5.38;79.71
21826;BME280;11075;47.944;11.776;2023-11-18T05:40:32;95573.53;;;-5.76;81.88
21826;BME280;11075;47.944;11.776;2023-11-18T05:43:02;95569.19;;;-5.32;79.79
21826;BME280;11075;47.944;11.776;2023-11-18T05:45:33;95568.31;;;-5.26;77.36
21826;BME280;11075;47.944;11.776;2023-11-18T05:48:21;95574.28;;;-4.94;75.93
21826;BME280;11075;47.944;11.776;2023-11-18T05:50:48;95578.13;;;-5.65;79.92
21826;BME280;11075;47.944;11.776;2023-11-18T05:53:15;95578.22;;;-5.28;78.08
21826;BME280;11075;47.944;11.776;2023-11-18T05:55:41;95575.44;;;-5.33;79.22
21826;BME280;11075;47.944;11.776;2023-11-18T05:58:08;95579.03;;;-5.28;77.78
21826;BME280;11075;47.944;11.776;2023-11-18T06:00:35;95583.34;;;-4.90;74.31
21826;BME280;11075;47.944;11.776;2023-11-18T06:03:07;95584.94;;;-5.32;77.43
21826;BME280;11075;47.944;11.776;2023-11-18T06:05:34;95582.16;;;-5.69;79.98
21826;BME280;11075;47.944;11.776;2023-11-18T06:08:02;95585.91;;;-5.51;78.03
21826;BME280;11075;47.944;11.776;2023-11-18T06:10:29;95589.19;;;-4.88;76.30
21826;BME280;11075;47.944;11.776;2023-11-18T06:12:57;95589.97;;;-5.31;77.27
21826;BME280;11075;47.944;11.776;2023-11-18T06:15:25;95603.06;;;-5.87;81.69
21826;BME280;11075;47.944;11.776;2023-11-18T06:17:51;95599.47;;;-5.54;80.42
21826;BME280;11075;47.944;11.776;2023-11-18T06:20:18;95606.69;;;-6.19;83.67
21826;BME280;11075;47.944;11.776;2023-11-18T06:22:47;95610.75;;;-6.24;85.78
21826;BME280;11075;47.944;11.776;2023-11-18T06:25:13;95610.41;;;-5.33;80.52
21826;BME280;11075;47.944;11.776;2023-11-18T06:27:43;95615.34;;;-5.43;79.75
21826;BME280;11075;47.944;11.776;2023-11-18T06:30:12;95615.78;;;-5.84;84.33
21826;BME280;11075;47.944;11.776;2023-11-18T06:32:39;95618.28;;;-5.96;83.73
21826;BME280;11075;47.944;11.776;2023-11-18T06:35:07;95610.78;;;-5.92;83.44
21826;BME280;11075;47.944;11.776;2023-11-18T06:37:34;95618.06;;;-6.39;86.45
21826;BME280;11075;47.944;11.776;2023-11-18T06:40:01;95613.47;;;-6.50;85.81
21826;BME280;11075;47.944;11.776;2023-11-18T06:42:30;95623.00;;;-6.75;86.10
21826;BME280;11075;47.944;11.776;2023-11-18T06:44:57;95619.53;;;-5.67;81.65
21826;BME280;11075;47.944;11.776;2023-11-18T06:47:24;95613.84;;;-5.32;79.46
21826;BME280;11075;47.944;11.776;2023-11-18T06:49:51;95619.00;;;-5.82;82.36
21826;BME280;11075;47.944;11.776;2023-11-18T06:52:19;95620.59;;;-5.81;80.60
21826;BME280;11075;47.944;11.776;2023-11-18T06:54:47;95610.09;;;-5.43;79.25
21826;BME280;11075;47.944;11.776;2023-11-18T06:57:16;95607.97;;;-5.97;83.49
21826;BME280;11075;47.944;11.776;2023-11-18T06:59:43;95602.34;;;-4.88;77.79
21826;BME280;11075;47.944;11.776;2023-11-18T07:02:10;95605.47;;;-4.79;75.76
21826;BME280;11075;47.944;11.776;2023-11-18T07:04:37;95601.03;;;-4.42;73.16
21826;BME280;11075;47.944;11.776;2023-11-18T07:07:05;95601.72;;;-5.08;78.72
21826;BME280;11075;47.944;11.776;2023-11-18T07:09:35;95617.44;;;-5.27;77.64
21826;BME280;11075;47.944;11.776;2023-11-18T07:12:03;95623.25;;;-4.75;76.24
21826;BME280;11075;47.944;11.776;2023-11-18T07:14:30;95623.06;;;-5.23;77.68
21826;BME280;11075;47.944;11.776;2023-11-18T07:16:57;95616.81;;;-4.42;73.97
21826;BME280;11075;47.944;11.776;2023-11-18T07:19:24;95616.63;;;-5.02;76.23
21826;BME280;11075;47.944;11.776;2023-11-18T07:21:51;95617.09;;;-4.69;75.39
21826;BME280;11075;47.944;11.776;2023-11-18T07:24:18;95618.53;;;-4.00;70.66
21826;BME280;11075;47.944;11.776;2023-11-18T07:26:47;95626.75;;;-4.63;75.15
21826;BME280;11075;47.944;11.776;2023-11-18T07:29:15;95623.00;;;-4.91;75.57
21826;BME280;11075;47.944;11.776;2023-11-18T07:31:43;95622.94;;;-3.63;69.14
21826;BME280;11075;47.944;11.776;2023-11-18T07:34:12;95627.41;;;-4.12;72.31
21826;BME280;11075;47.944;11.776;2023-11-18T07:36:39;95625.56;;;-3.63;69.31
21826;BME280;11075;47.944;11.776;2023-11-18T07:39:06;95626.38;;;-4.30;74.45
21826;BME280;11075;47.944;11.776;2023-11-18T07:41:42;95630.75;;;-4.05;72.36
21826;BME280;11075;47.944;11.776;2023-11-18T07:44:09;95635.44;;;-4.62;75.18
21826;BME280;11075;47.944;11.776;2023-11-18T07:46:39;95638.38;;;-4.15;73.96
21826;BME280;11075;47.944;11.776;2023-11-18T07:49:09;95637.53;;;-3.98;72.93
21826;BME280;11075;47.944;11.776;2023-11-18T07:51:38;95647.38;;;-4.59;75.90
21826;BME280;11075;47.944;11.776;2023-11-18T07:54:07;95640.94;;;-4.27;74.00
21826;BME280;11075;47.944;11.776;2023-11-18T07:56:34;95645.63;;;-3.62;71.14
21826;BME280;11075;47.944;11.776;2023-11-18T07:59:03;95646.66;;;-3.63;72.13
21826;BME280;11075;47.944;11.776;2023-11-18T08:01:30;95639.16;;;-3.37;72.23
21826;BME280;11075;47.944;11.776;2023-11-18T08:03:57;95645.03;;;-3.65;73.49
21826;BME280;11075;47.944;11.776;2023-11-18T08:06:24;95634.72;;;-3.24;70.75
21826;BME280;11075;47.944;11.776;2023-11-18T08:08:53;95631.25;;;-3.78;72.20
21826;BME280;11075;47.944;11.776;2023-11-18T08:11:20;95631.03;;;-3.95;74.03
21826;BME280;11075;47.944;11.776;2023-11-18T08:13:47;95641.03;;;-3.67;72.19
21826;BME280;11075;47.944;11.776;2023-11-18T08:16:14;95632.53;;;-3.69;71.92
21826;BME280;11075;47.944;11.776;2023-11-18T08:18:42;95641.19;;;-3.50;72.69
21826;BME280;11075;47.944;11.776;2023-11-18T08:21:09;95636.25;;;-3.58;74.21
21826;BME280;11075;47.944;11.776;2023-11-18T08:23:36;95637.81;;;-3.16;70.87
21826;BME280;11075;47.944;11.776;2023-11-18T08:26:04;95635.59;;;-4.20;73.50
21826;BME280;11075;47.944;11.776;2023-11-18T08:28:32;95640.94;;;-4.27;74.13
21826;BME280;11075;47.944;11.776;2023-11-18T08:30:59;95634.09;;;-3.98;76.83
21826;BME280;11075;47.944;11.776;2023-11-18T08:33:27;95632.66;;;-3.22;71.65
21826;BME280;11075;47.944;11.776;2023-11-18T08:35:55;95628.75;;;-3.32;71.60
21826;BME280;11075;47.944;11.776;2023-11-18T08:38:23;95634.75;;;-3.01;69.63
21826;BME280;11075;47.944;11.776;2023-11-18T08:40:51;95644.22;;;-3.35;68.94
21826;BME280;11075;47.944;11.776;2023-11-18T08:43:18;95648.31;;;-3.39;70.56
21826;BME280;11075;47.944;11.776;2023-11-18T08:45:47;95659.88;;;-4.18;76.92
21826;BME280;11075;47.944;11.776;2023-11-18T08:48:17;95659.09;;;-4.80;78.27
21826;BME280;11075;47.944;11.776;2023-11-18T08:50:45;95669.84;;;-3.42;73.19
21826;BME280;11075;47.944;11.776;2023-11-18T08:53:13;95663.66;;;-3.48;73.67
21826;BME280;11075;47.944;11.776;2023-11-18T08:55:45;95668.75;;;-4.74;77.88
21826;BME280;11075;47.944;11.776;2023-11-18T08:58:18;95660.22;;;-3.48;75.55
21826;BME280;11075;47.944;11.776;2023-11-18T09:00:57;95649.34;;;-4.18;76.18
21826;BME280;11075;47.944;11.776;2023-11-18T09:03:41;95639.56;;;-2.75;69.46
21826;BME280;11075;47.944;11.776;2023-11-18T09:06:15;95629.28;;;-2.01;67.27
21826;BME280;11075;47.944;11.776;2023-11-18T09:08:47;95647.16;;;-2.78;66.33
21826;BME280;11075;47.944;11.776;2023-11-18T09:11:22;95638.31;;;-2.72;68.38
21826;BME280;11075;47.944;11.776;2023-11-18T09:13:50;95636.06;;;-2.05;63.03
21826;BME280;11075;47.944;11.776;2023-11-18T09:16:21;95620.16;;;-0.86;59.97
21826;BME280;11075;47.944;11.776;2023-11-18T09:18:49;95617.75;;;-1.38;59.92
21826;BME280;11075;47.944;11.776;2023-11-18T09:21:17;95619.22;;;-0.80;59.79
21826;BME280;11075;47.944;11.776;2023-11-18T09:23:52;95622.38;;;-1.45;59.55
21826;BME280;11075;47.944;11.776;2023-11-18T09:26:18;95616.72;;;-1.20;63.27
21826;BME280;11075;47.944;11.776;2023-11-18T09:28:48;95626.41;;;-1.26;59.46
21826;BME280;11075;47.944;11.776;2023-11-18T09:31:17;95627.25;;;-2.22;64.96
21826;BME280;11075;47.944;11.776;2023-11-18T09:33:44;95636.59;;;-3.02;69.52
21826;BME280;11075;47.944;11.776;2023-11-18T09:36:20;95634.09;;;-0.57;58.13
21826;BME280;11075;47.944;11.776;2023-11-18T09:38:47;95628.72;;;-1.13;60.08
21826;BME280;11075;47.944;11.776;2023-11-18T09:41:15;95634.94;;;0.84;50.72
21826;BME280;11075;47.944;11.776;2023-11-18T09:43:44;95628.31;;;5.05;44.41
21826;BME280;11075;47.944;11.776;2023-11-18T09:46:28;95618.59;;;1.77;49.81
21826;BME280;11075;47.944;11.776;2023-11-18T09:51:36;95636.22;;;3.42;46.95
21826;BME280;11075;47.944;11.776;2023-11-18T09:54:07;95626.53;;;3.87;45.13
21826;BME280;11075;47.944;11.776;2023-11-18T09:59:20;95612.66;;;3.90;44.47
21826;BME280;11075;47.944;11.776;2023-11-18T10:01:53;95614.81;;;2.35;48.44
21826;BME280;11075;47.944;11.776;2023-11-18T10:04:24;95613.38;;;-0.22;53.08
21826;BME280;11075;47.944;11.776;2023-11-18T10:06:55;95612.59;;;0.48;53.81
21826;BME280;11075;47.944;11.776;2023-11-18T10:09:23;95623.38;;;-2.43;60.42
21826;BME280;11075;47.944;11.776;2023-11-18T10:12:04;95624.47;;;-1.30;55.31
21826;BME280;11075;47.944;11.776;2023-11-18T10:14:35;95629.91;;;-1.37;55.85
21826;BME280;11075;47.944;11.776;2023-11-18T10:17:05;95619.59;;;-0.88;53.81
21826;BME280;11075;47.944;11.776;2023-11-18T10:19:57;95619.38;;;-0.10;51.77
21826;BME280;11075;47.944;11.776;2023-11-18T10:22:39;95607.41;;;0.91;50.12
21826;BME280;11075;47.944;11.776;2023-11-18T10:25:07;95614.75;;;-0.19;54.38
21826;BME280;11075;47.944;11.776;2023-11-18T10:27:34;95609.59;;;0.99;52.59
21826;BME280;11075;47.944;11.776;2023-11-18T10:30:03;95594.31;;;0.25;49.65
21826;BME280;11075;47.944;11.776;2023-11-18T10:32:31;95608.78;;;2.70;47.91
21826;BME280;11075;47.944;11.776;2023-11-18T10:35:06;95605.72;;;2.11;48.30
21826;BME280;11075;47.944;11.776;2023-11-18T10:37:35;95585.63;;;0.89;48.28
21826;BME280;11075;47.944;11.776;2023-11-18T10:40:09;95607.22;;;0.70;51.38
21826;BME280;11075;47.944;11.776;2023-11-18T10:42:40;95580.41;;;0.67;47.78
21826;BME280;11075;47.944;11.776;2023-11-18T10:45:07;95585.28;;;-0.01;50.68
21826;BME280;11075;47.944;11.776;2023-11-18T10:47:42;95589.88;;;0.90;47.70
21826;BME280;11075;47.944;11.776;2023-11-18T10:50:09;95583.25;;;0.06;49.22
21826;BME280;11075;47.944;11.776;2023-11-18T10:52:37;95562.25;;;0.85;47.32
21826;BME280;11075;47.944;11.776;2023-11-18T10:55:08;95583.22;;;1.24;46.40
21826;BME280;11075;47.944;11.776;2023-11-18T10:57:40;95565.69;;;0.00;48.79
21826;BME280;11075;47.944;11.776;2023-11-18T11:00:10;95587.69;;;0.01;47.27
21826;BME280;11075;47.944;11.776;2023-11-18T11:02:40;95593.88;;;1.29;48.20
21826;BME280;11075;47.944;11.776;2023-11-18T11:05:08;95583.00;;;0.62;47.15
21826;BME280;11075;47.944;11.776;2023-11-18T11:07:48;95605.16;;;-0.97;51.50
21826;BME280;11075;47.944;11.776;2023-11-18T11:10:15;95596.44;;;-0.43;51.44
21826;BME280;11075;47.944;11.776;2023-11-18T11:12:50;95604.59;;;0.43;47.92
21826;BME280;11075;47.944;11.776;2023-11-18T11:15:29;95587.50;;;2.81;45.48
21826;BME280;11075;47.944;11.776;2023-11-18T11:18:05;95580.69;;;1.02;46.50
21826;BME280;11075;47.944;11.776;2023-11-18T11:20:45;95609.84;;;3.40;43.08
21826;BME280;11075;47.944;11.776;2023-11-18T11:23:21;95598.34;;;2.43;43.35
21826;BME280;11075;47.944;11.776;2023-11-18T11:28:42;95590.44;;;2.84;43.05
21826;BME280;11075;47.944;11.776;2023-11-18T11:31:37;95569.97;;;1.29;45.92
21826;BME280;11075;47.944;11.776;2023-11-18T11:34:17;95606.47;;;-0.01;45.51
21826;BME280;11075;47.944;11.776;2023-11-18T11:36:51;95603.00;;;-0.67;48.60
21826;BME280;11075;47.944;11.776;2023-11-18T11:39:19;95614.50;;;1.17;45.85
21826;BME280;11075;47.944;11.776;2023-11-18T11:41:53;95600.19;;;-0.38;46.94
21826;BME280;11075;47.944;11.776;2023-11-18T11:44:24;95617.16;;;-0.56;47.69
21826;BME280;11075;47.944;11.776;2023-11-18T11:46:59;95606.50;;;-0.61;50.02
21826;BME280;11075;47.944;11.776;2023-11-18T11:49:36;95604.72;;;-0.56;49.84
21826;BME280;11075;47.944;11.776;2023-11-18T11:52:16;95601.25;;;-0.78;50.70
21826;BME280;11075;47.944;11.776;2023-11-18T11:55:07;95603.31;;;-1.47;51.60
21826;BME280;11075;47.944;11.776;2023-11-18T11:57:39;95586.00;;;-2.12;51.23
21826;BME280;11075;47.944;11.776;2023-11-18T12:00:09;95590.88;;;-1.63;52.81
21826;BME280;11075;47.944;11.776;2023-11-18T12:02:52;95590.81;;;-1.01;50.34
21826;BME280;11075;47.944;11.776;2023-11-18T12:05:25;95599.91;;;2.24;43.61
21826;BME280;11075;47.944;11.776;2023-11-18T12:07:53;95589.22;;;2.09;43.66
21826;BME280;11075;47.944;11.776;2023-11-18T12:10:31;95584.31;;;2.94;42.28
21826;BME280;11075;47.944;11.776;2023-11-18T12:13:11;95572.56;;;1.19;43.60
21826;BME280;11075;47.944;11.776;2023-11-18T12:15:49;95530.69;;;0.52;45.87
21826;BME280;11075;47.944;11.776;2023-11-18T12:18:22;95568.78;;;0.73;44.42
21826;BME280;11075;47.944;11.776;2023-11-18T12:20:51;95545.09;;;0.98;45.07
21826;BME280;11075;47.944;11.776;2023-11-18T12:23:21;95562.25;;;1.75;44.18
21826;BME280;11075;47.944;11.776;2023-11-18T12:25:52;95549.66;;;1.08;45.28
21826;BME280;11075;47.944;11.776;2023-11-18T12:28:29;95552.00;;;-0.79;48.61
21826;BME280;11075;47.944;11.776;2023-11-18T12:31:04;95557.13;;;-0.89;49.65
21826;BME280;11075;47.944;11.776;2023-11-18T12:39:27;95536.88;;;-0.18;48.86
21826;BME280;11075;47.944;11.776;2023-11-18T12:42:05;95539.16;;;-0.27;47.97
21826;BME280;11075;47.944;11.776;2023-11-18T12:47:55;95533.78;;;0.44;47.72
21826;BME280;11075;47.944;11.776;2023-11-18T12:50:22;95519.06;;;0.31;48.80
21826;BME280;11075;47.944;11.776;2023-11-18T12:52:52;95514.84;;;-0.46;50.12
21826;BME280;11075;47.944;11.776;2023-11-18T12:55:20;95505.28;;;-0.25;48.85
21826;BME280;11075;47.944;11.776;2023-11-18T12:57:47;95510.81;;;-1.09;48.81
21826;BME280;11075;47.944;11.776;2023-11-18T13:00:16;95509.03;;;-0.21;50.16
21826;BME280;11075;47.944;11.776;2023-11-18T13:02:48;95510.41;;;-0.62;49.36
21826;BME280;11075;47.944;11.776;2023-11-18T13:05:15;95501.25;;;-0.93;55.08
21826;BME280;11075;47.944;11.776;2023-11-18T13:07:42;95497.78;;;-0.33;50.55
21826;BME280;11075;47.944;11.776;2023-11-18T13:10:10;95502.59;;;-0.52;48.62
21826;BME280;11075;47.944;11.776;2023-11-18T13:12:43;95508.22;;;-0.21;48.25
21826;BME280;11075;47.944;11.776;2023-11-18T13:15:11;95497.56;;;-0.26;50.99
21826;BME280;11075;47.944;11.776;2023-11-18T13:17:38;95496.75;;;-0.05;50.01
21826;BME280;11075;47.944;11.776;2023-11-18T13:20:12;95483.09;;;0.72;50.29
21826;BME280;11075;47.944;11.776;2023-11-18T13:22:44;95482.09;;;-0.83;51.17
21826;BME280;11075;47.944;11.776;2023-11-18T13:25:14;95489.41;;;0.34;48.02